Time;durP1;ratioP1;P1;durP2;ratioP2;P2;SDS_P1;SDS_P2;PMS_P1;PMS_P2;Temp;Humidity;BMP_temperature;BMP_pressure;BME280_temperature;BME280_humidity;BME280_pressure;Samples;Min_cycle;Max_cycle;Signal;HPM_P1;HPM_P2
2022/06/07 00:01:40;;;;;;;9.05;6.43;;;;;;;-144.82;100.00;71671.09;5005387;28;20451;-77
2022/06/07 00:04:06;;;;;;;10.63;7.97;;;;;;;-144.82;100.00;71671.09;4996179;28;20026;-77
2022/06/07 00:06:33;;;;;;;12.88;8.02;;;;;;;-144.82;100.00;71671.09;4994156;28;20038;-77
2022/06/07 00:08:59;;;;;;;10.07;7.18;;;;;;;-144.82;100.00;71671.09;4994522;28;20029;-76
2022/06/07 00:11:26;;;;;;;11.75;7.40;;;;;;;-144.82;100.00;71671.09;4994449;28;20057;-77
2022/06/07 00:13:51;;;;;;;9.52;7.15;;;;;;;-144.82;100.00;71671.09;4996044;28;20053;-78
2022/06/07 00:16:17;;;;;;;11.02;8.10;;;;;;;-144.82;100.00;71671.09;4995599;28;20026;-78
2022/06/07 00:18:44;;;;;;;9.27;6.95;;;;;;;-144.82;100.00;71671.09;4962410;28;20073;-76
2022/06/07 00:21:10;;;;;;;11.07;7.15;;;;;;;-144.82;100.00;71671.09;4978374;28;20168;-76
2022/06/07 00:23:37;;;;;;;11.10;6.82;;;;;;;-144.82;100.00;71671.09;4995233;28;20491;-76
2022/06/07 00:26:03;;;;;;;11.20;7.25;;;;;;;-144.82;100.00;71671.09;4995471;28;20065;-77
2022/06/07 00:28:28;;;;;;;12.63;8.43;;;;;;;-144.82;100.00;71671.09;4978333;28;20034;-77
2022/06/07 00:30:56;;;;;;;10.18;7.78;;;;;;;-144.82;100.00;71671.09;4977679;28;20379;-75
2022/06/07 00:33:24;;;;;;;10.13;7.70;;;;;;;-144.82;100.00;71671.09;4995405;28;20106;-76
2022/06/07 00:35:50;;;;;;;12.02;8.07;;;;;;;-144.82;100.00;71671.09;4977730;28;20372;-76
2022/06/07 00:38:17;;;;;;;10.20;6.72;;;;;;;-144.82;100.00;71671.09;4994090;28;20420;-76
2022/06/07 00:40:43;;;;;;;10.48;7.28;;;;;;;-144.82;100.00;71671.09;4995505;28;20026;-75
2022/06/07 00:43:09;;;;;;;10.48;7.40;;;;;;;-144.82;100.00;71671.09;4995123;28;20485;-75
2022/06/07 00:45:36;;;;;;;11.90;7.78;;;;;;;-144.82;100.00;71671.09;4994010;28;20427;-76
2022/06/07 00:48:04;;;;;;;10.30;7.47;;;;;;;-144.82;100.00;71671.09;4994684;28;20039;-76
2022/06/07 00:50:56;;;;;;;10.68;7.47;;;;;;;-144.82;100.00;71671.09;4977534;28;20026;-77
2022/06/07 00:53:30;;;;;;;10.48;7.32;;;;;;;-144.82;100.00;71671.09;4993645;28;20022;-75
2022/06/07 00:56:05;;;;;;;12.18;8.13;;;;;;;-144.82;100.00;71671.09;4993834;28;20049;-75
2022/06/07 00:58:32;;;;;;;9.65;7.22;;;;;;;-144.82;100.00;71671.09;4994931;28;20034;-75
2022/06/07 01:00:59;;;;;;;11.95;7.95;;;;;;;-144.82;100.00;71671.09;4993572;28;20038;-76
2022/06/07 01:03:25;;;;;;;9.77;6.70;;;;;;;-144.82;100.00;71671.09;4961538;28;20089;-76
2022/06/07 01:05:51;;;;;;;8.25;6.63;;;;;;;-144.82;100.00;71671.09;4961300;28;20038;-76
2022/06/07 01:11:04;;;;;;;8.82;6.80;;;;;;;-144.82;100.00;71671.09;4994664;28;20050;-77
2022/06/07 01:13:39;;;;;;;8.60;5.97;;;;;;;-144.82;100.00;71671.09;4961904;28;20034;-77
2022/06/07 01:16:07;;;;;;;9.63;6.00;;;;;;;-144.82;100.00;71671.09;4995158;28;20060;-77
2022/06/07 01:18:34;;;;;;;7.15;5.78;;;;;;;-144.82;100.00;71671.09;4993376;28;20125;-78
2022/06/07 01:21:17;;;;;;;7.93;5.75;;;;;;;-144.82;100.00;71671.09;4993470;28;20037;-76
2022/06/07 01:23:58;;;;;;;7.43;6.03;;;;;;;-144.82;100.00;71671.09;4993159;28;20070;-76
2022/06/07 01:26:25;;;;;;;8.23;5.97;;;;;;;-144.82;100.00;71671.09;4994697;28;20058;-76
2022/06/07 01:28:50;;;;;;;6.65;5.35;;;;;;;-144.82;100.00;71671.09;4993169;28;20076;-76
2022/06/07 01:31:16;;;;;;;7.10;5.47;;;;;;;-144.82;100.00;71671.09;4994542;28;20036;-76
2022/06/07 01:33:43;;;;;;;8.27;6.60;;;;;;;-144.82;100.00;71671.09;4993154;28;20112;-75
2022/06/07 01:36:11;;;;;;;6.95;5.43;;;;;;;-144.82;100.00;71671.09;4993871;28;20200;-76
2022/06/07 01:41:53;;;;;;;8.13;6.03;;;;;;;-144.82;100.00;71671.09;4992992;28;20045;-76
2022/06/07 01:44:17;;;;;;;7.95;5.72;;;;;;;-144.82;100.00;71671.09;4994462;28;20037;-76
2022/06/07 01:46:42;;;;;;;6.35;5.70;;;;;;;-144.82;100.00;71671.09;4994165;28;20097;-76
2022/06/07 01:49:09;;;;;;;9.73;5.95;;;;;;;-144.82;100.00;71671.09;4976598;28;20114;-78
2022/06/07 01:51:34;;;;;;;5.82;4.95;;;;;;;-144.82;100.00;71671.09;4992952;28;20039;-77
2022/06/07 01:54:00;;;;;;;7.30;6.13;;;;;;;-144.82;100.00;71671.09;4993954;28;20033;-76
2022/06/07 01:56:27;;;;;;;6.22;5.07;;;;;;;-144.82;100.00;71671.09;4976502;28;20136;-77
2022/06/07 01:58:53;;;;;;;6.35;5.72;;;;;;;-144.82;100.00;71671.09;4992782;28;20022;-77
2022/06/07 02:01:20;;;;;;;6.25;4.90;;;;;;;-144.82;100.00;71671.09;4976194;28;20495;-77
2022/06/07 02:03:47;;;;;;;6.72;5.78;;;;;;;-144.82;100.00;71671.09;4992903;28;20023;-77
2022/06/07 02:06:14;;;;;;;8.40;6.13;;;;;;;-144.82;100.00;71671.09;4994375;28;20388;-77
2022/06/07 02:08:48;;;;;;;6.00;5.15;;;;;;;-144.82;100.00;71671.09;4998248;28;20484;-76
2022/06/07 02:11:26;;;;;;;5.78;5.20;;;;;;;-144.82;100.00;71671.09;4996855;28;20123;-76
2022/06/07 02:13:52;;;;;;;6.32;5.40;;;;;;;-144.82;100.00;71671.09;4996691;28;20018;-76
2022/06/07 02:16:20;;;;;;;6.82;5.65;;;;;;;-144.82;100.00;71671.09;4997009;28;20513;-77
2022/06/07 02:18:47;;;;;;;7.00;5.05;;;;;;;-144.82;100.00;71671.09;4996763;28;20037;-77
2022/06/07 02:21:15;;;;;;;7.22;5.07;;;;;;;-144.82;100.00;71671.09;4996597;28;20038;-75
2022/06/07 02:23:41;;;;;;;6.30;5.22;;;;;;;-144.82;100.00;71671.09;4980410;28;20038;-75
2022/06/07 02:26:12;;;;;;;7.07;5.18;;;;;;;-144.82;100.00;71671.09;4997758;28;20038;-76
2022/06/07 02:28:40;;;;;;;6.55;5.43;;;;;;;-144.82;100.00;71671.09;4996449;28;20026;-76
2022/06/07 02:31:08;;;;;;;7.80;5.38;;;;;;;-144.82;100.00;71671.09;4996533;28;20498;-78
2022/06/07 02:33:36;;;;;;;6.85;5.53;;;;;;;-144.82;100.00;71671.09;4996274;28;20380;-76
2022/06/07 02:36:04;;;;;;;7.10;5.78;;;;;;;-144.82;100.00;71671.09;4980209;28;20026;-76
2022/06/07 02:38:31;;;;;;;6.07;5.35;;;;;;;-144.82;100.00;71671.09;4996123;28;20093;-77
2022/06/07 02:40:58;;;;;;;5.97;4.82;;;;;;;-144.82;100.00;71671.09;4996788;28;20077;-75
2022/06/07 02:43:24;;;;;;;6.30;5.22;;;;;;;-144.82;100.00;71671.09;4997192;28;20039;-76
2022/06/07 02:45:50;;;;;;;6.65;5.47;;;;;;;-144.82;100.00;71671.09;4980201;28;20026;-76
2022/06/07 02:48:16;;;;;;;6.78;5.72;;;;;;;-144.82;100.00;71671.09;4997190;28;20038;-76
2022/06/07 02:50:43;;;;;;;7.40;5.65;;;;;;;-144.82;100.00;71671.09;4998372;28;20026;-77
2022/06/07 02:53:10;;;;;;;6.90;5.63;;;;;;;-144.82;100.00;71671.09;4997745;28;20019;-77
2022/06/07 02:55:36;;;;;;;6.30;4.88;;;;;;;-144.82;100.00;71671.09;4995981;28;20026;-76
2022/06/07 02:58:01;;;;;;;6.72;6.10;;;;;;;-144.82;100.00;71671.09;4997355;28;20031;-76
2022/06/07 03:00:27;;;;;;;6.05;5.43;;;;;;;-144.82;100.00;71671.09;4997101;28;20112;-76
2022/06/07 03:02:54;;;;;;;6.85;5.82;;;;;;;-144.82;100.00;71671.09;4996088;28;20030;-77
2022/06/07 03:05:20;;;;;;;7.18;5.80;;;;;;;-144.82;100.00;71671.09;4997226;28;20026;-77
2022/06/07 03:07:46;;;;;;;5.97;5.38;;;;;;;-144.82;100.00;71671.09;4995720;28;20069;-76
2022/06/07 03:10:13;;;;;;;6.63;4.90;;;;;;;-144.82;100.00;71671.09;4996881;28;20026;-76
2022/06/07 03:12:39;;;;;;;6.45;5.10;;;;;;;-144.82;100.00;71671.09;4995844;28;20030;-76
2022/06/07 03:15:06;;;;;;;7.78;5.90;;;;;;;-144.82;100.00;71671.09;4997332;28;20058;-75
2022/06/07 03:17:31;;;;;;;8.13;5.90;;;;;;;-144.82;100.00;71671.09;4995641;28;20034;-76
2022/06/07 03:19:58;;;;;;;6.65;4.97;;;;;;;-144.82;100.00;71671.09;4995250;28;20045;-77
2022/06/07 03:22:23;;;;;;;5.78;5.07;;;;;;;-144.82;100.00;71671.09;4995644;28;20026;-77
2022/06/07 03:24:50;;;;;;;9.70;5.55;;;;;;;-144.82;100.00;71671.09;4994406;28;20039;-76
2022/06/07 03:27:18;;;;;;;6.28;5.63;;;;;;;-144.82;100.00;71671.09;4996245;28;20034;-77
2022/06/07 03:29:43;;;;;;;7.25;5.70;;;;;;;-144.82;100.00;71671.09;4995169;28;20042;-77
2022/06/07 03:32:09;;;;;;;6.80;5.80;;;;;;;-144.82;100.00;71671.09;4996640;28;20030;-76
2022/06/07 03:34:37;;;;;;;5.80;5.13;;;;;;;-144.82;100.00;71671.09;4995023;28;20046;-76
2022/06/07 03:37:03;;;;;;;6.30;5.70;;;;;;;-144.82;100.00;71671.09;4995366;28;20034;-77
2022/06/07 03:39:30;;;;;;;8.23;5.25;;;;;;;-144.82;100.00;71671.09;4995422;28;20038;-76
2022/06/07 03:41:56;;;;;;;8.98;6.15;;;;;;;-144.82;100.00;71671.09;4996778;28;20045;-76
2022/06/07 03:44:23;;;;;;;6.95;5.30;;;;;;;-144.82;100.00;71671.09;4996759;28;20030;-77
2022/06/07 03:46:50;;;;;;;7.53;5.90;;;;;;;-144.82;100.00;71671.09;4996748;28;20029;-77
2022/06/07 03:49:16;;;;;;;7.22;5.60;;;;;;;-144.82;100.00;71671.09;4978796;28;20056;-76
2022/06/07 03:51:43;;;;;;;12.32;7.28;;;;;;;-144.82;100.00;71671.09;4978666;28;20054;-76
2022/06/07 03:54:09;;;;;;;6.95;5.88;;;;;;;-144.82;100.00;71671.09;4996242;28;20053;-75
2022/06/07 03:56:34;;;;;;;8.18;6.75;;;;;;;-144.82;100.00;71671.09;4996194;28;20029;-76
2022/06/07 03:59:02;;;;;;;7.93;6.95;;;;;;;-144.82;100.00;71671.09;4996017;28;20117;-76
2022/06/07 04:01:37;;;;;;;9.02;7.30;;;;;;;-144.82;100.00;71671.09;4994980;28;20116;-76
2022/06/07 04:04:06;;;;;;;8.18;6.80;;;;;;;-144.82;100.00;71671.09;4994693;28;20050;-76
2022/06/07 04:06:39;;;;;;;13.18;7.95;;;;;;;-144.82;100.00;71671.09;4975226;28;20043;-77
2022/06/07 04:09:05;;;;;;;10.15;7.10;;;;;;;-144.82;100.00;71671.09;4996226;28;20491;-77
2022/06/07 04:11:32;;;;;;;8.55;6.35;;;;;;;-144.82;100.00;71671.09;4995240;28;20113;-76
2022/06/07 04:13:59;;;;;;;7.93;6.13;;;;;;;-144.82;100.00;71671.09;4978158;28;20026;-76
2022/06/07 04:16:27;;;;;;;8.55;6.57;;;;;;;-144.82;100.00;71671.09;4995341;28;20062;-76
2022/06/07 04:18:54;;;;;;;11.20;6.60;;;;;;;-144.82;100.00;71671.09;4994416;28;20034;-76
2022/06/07 04:21:21;;;;;;;8.05;6.35;;;;;;;-144.82;100.00;71671.09;4978132;28;20558;-76
2022/06/07 04:23:48;;;;;;;8.57;6.00;;;;;;;-144.82;100.00;71671.09;4978191;28;20039;-76
2022/06/07 04:26:20;;;;;;;7.20;5.95;;;;;;;-144.82;100.00;71671.09;4995555;28;20030;-76
2022/06/07 04:28:45;;;;;;;7.85;6.68;;;;;;;-144.82;100.00;71671.09;4994072;28;20026;-76
2022/06/07 04:31:17;;;;;;;6.45;5.72;;;;;;;-144.82;100.00;71671.09;4994014;28;20491;-76
2022/06/07 04:33:44;;;;;;;;;;;;;;;-144.82;100.00;71671.09;4978277;28;20056;-77
2022/06/07 04:36:15;;;;;;;8.35;6.97;;;;;;;-144.82;100.00;71671.09;4995377;28;20049;-76
2022/06/07 04:39:02;;;;;;;8.63;6.33;;;;;;;-144.82;100.00;71671.09;4995204;28;20052;-76
2022/06/07 04:41:28;;;;;;;11.80;8.60;;;;;;;-144.82;100.00;71671.09;4994938;28;20374;-76
2022/06/07 04:43:56;;;;;;;6.80;5.85;;;;;;;-144.82;100.00;71671.09;4995217;28;20033;-78
2022/06/07 04:46:21;;;;;;;9.35;6.32;;;;;;;-144.82;100.00;71671.09;5007233;28;20030;-77
2022/06/07 04:48:49;;;;;;;6.45;4.88;;;;;;;-144.82;100.00;71671.09;5001449;28;20045;-77
2022/06/07 04:51:21;;;;;;;5.97;4.85;;;;;;;-144.82;100.00;71671.09;4998666;28;20175;-78
2022/06/07 04:53:49;;;;;;;6.07;4.93;;;;;;;-144.82;100.00;71671.09;4981367;28;20471;-76
2022/06/07 04:56:20;;;;;;;7.45;4.85;;;;;;;-144.82;100.00;71671.09;4978532;28;20486;-77
2022/06/07 04:58:47;;;;;;;8.50;4.40;;;;;;;-144.82;100.00;71671.09;4998794;28;20030;-77
2022/06/07 05:01:34;;;;;;;4.85;4.18;;;;;;;-144.82;100.00;71671.09;4997969;28;20076;-79
2022/06/07 05:04:00;;;;;;;10.18;5.05;;;;;;;-144.82;100.00;71671.09;5001086;28;20026;-78
2022/06/07 05:06:31;;;;;;;5.95;5.18;;;;;;;-144.82;100.00;71671.09;4999032;28;20113;-79
2022/06/07 05:09:00;;;;;;;6.32;3.92;;;;;;;-144.82;100.00;71671.09;4999051;28;20037;-79
2022/06/07 05:11:26;;;;;;;4.93;3.88;;;;;;;-144.82;100.00;71671.09;4963301;28;20476;-78
2022/06/07 05:13:57;;;;;;;5.95;3.00;;;;;;;-144.82;100.00;71671.09;4995822;28;20435;-80
2022/06/07 05:16:24;;;;;;;6.65;3.88;;;;;;;-144.82;100.00;71671.09;4996583;28;20050;-77
2022/06/07 05:18:51;;;;;;;4.05;3.50;;;;;;;-144.82;100.00;71671.09;4996815;28;20029;-80
2022/06/07 05:21:19;;;;;;;6.75;3.75;;;;;;;-144.82;100.00;71671.09;4997710;28;20034;-78
2022/06/07 05:23:45;;;;;;;5.05;3.65;;;;;;;-144.82;100.00;71671.09;5000148;28;20033;-79
2022/06/07 05:26:27;;;;;;;7.10;3.90;;;;;;;-144.82;100.00;71671.09;5016744;28;20105;-77
2022/06/07 05:28:55;;;;;;;5.05;3.67;;;;;;;-144.82;100.00;71671.09;5016210;28;20113;-78
2022/06/07 05:31:22;;;;;;;3.10;2.80;;;;;;;-144.82;100.00;71671.09;4998948;28;20045;-81
2022/06/07 05:33:48;;;;;;;8.80;3.30;;;;;;;-144.82;100.00;71671.09;4995101;28;20115;-84
2022/06/07 05:36:15;;;;;;;7.15;3.40;;;;;;;-144.82;100.00;71671.09;4995655;28;20396;-84
2022/06/07 05:38:42;;;;;;;5.45;4.93;;;;;;;-144.82;100.00;71671.09;4996198;28;20030;-81
2022/06/07 05:41:21;;;;;;;4.30;3.05;;;;;;;-144.82;100.00;71671.09;4993065;28;20437;-81
2022/06/07 05:43:46;;;;;;;4.60;3.00;;;;;;;-144.82;100.00;71671.09;5001310;28;20026;-82
2022/06/07 05:46:12;;;;;;;8.73;3.50;;;;;;;-144.82;100.00;71671.09;5019386;28;20029;-83
2022/06/07 05:48:38;;;;;;;3.13;2.65;;;;;;;-144.82;100.00;71671.09;5013759;28;20030;-80
2022/06/07 05:51:04;;;;;;;5.75;3.17;;;;;;;-144.82;100.00;71671.09;5016077;28;20025;-80
2022/06/07 05:53:29;;;;;;;6.20;3.78;;;;;;;-144.82;100.00;71671.09;5017487;28;20033;-80
2022/06/07 05:55:54;;;;;;;7.85;2.47;;;;;;;-144.82;100.00;71671.09;5018569;28;20036;-78
2022/06/07 05:58:20;;;;;;;2.78;1.95;;;;;;;-144.82;100.00;71671.09;5014776;28;20029;-79
2022/06/07 06:00:46;;;;;;;4.88;2.20;;;;;;;-144.82;100.00;71671.09;5015987;28;20030;-79
2022/06/07 06:03:12;;;;;;;4.80;2.10;;;;;;;-144.82;100.00;71671.09;5015170;28;20022;-79
2022/06/07 06:05:44;;;;;;;2.70;2.17;;;;;;;-144.82;100.00;71671.09;5016477;28;20080;-80
2022/06/07 06:11:15;;;;;;;2.30;2.00;;;;;;;-144.82;100.00;71671.09;5015362;28;20028;-79
2022/06/07 06:13:41;;;;;;;1.48;1.38;;;;;;;-144.82;100.00;71671.09;5014357;28;20025;-79
2022/06/07 06:16:18;;;;;;;3.70;1.90;;;;;;;-144.82;100.00;71671.09;5015413;28;20138;-78
2022/06/07 06:18:45;;;;;;;2.00;1.80;;;;;;;-144.82;100.00;71671.09;4997752;28;20034;-78
2022/06/07 06:21:10;;;;;;;3.17;2.88;;;;;;;-144.82;100.00;71671.09;5014046;28;20022;-79
2022/06/07 06:23:36;;;;;;;3.35;1.90;;;;;;;-144.82;100.00;71671.09;5013422;28;20032;-79
2022/06/07 06:26:05;;;;;;;3.50;1.83;;;;;;;-144.82;100.00;71671.09;5013774;28;20033;-79
2022/06/07 06:28:31;;;;;;;3.42;2.08;;;;;;;-144.82;100.00;71671.09;5013852;28;20083;-73
2022/06/07 06:31:02;;;;;;;7.38;2.20;;;;;;;-144.82;100.00;71671.09;5012317;28;20022;-74
2022/06/07 06:33:28;;;;;;;1.58;1.40;;;;;;;-144.82;100.00;71671.09;4988091;28;20044;-74
2022/06/07 06:35:54;;;;;;;3.45;1.90;;;;;;;-144.82;100.00;71671.09;4991906;28;20038;-73
2022/06/07 06:38:22;;;;;;;3.40;1.75;;;;;;;-144.82;100.00;71671.09;4992638;28;20105;-79
2022/06/07 06:41:26;;;;;;;1.83;1.73;;;;;;;-144.82;100.00;71671.09;4989251;28;20042;-80
2022/06/07 06:43:53;;;;;;;1.95;1.85;;;;;;;-144.82;100.00;71671.09;4989874;28;20137;-73
2022/06/07 06:46:24;;;;;;;2.60;1.80;;;;;;;-144.82;100.00;71671.09;4974499;28;20082;-77
2022/06/07 06:48:51;;;;;;;3.17;1.70;;;;;;;-144.82;100.00;71671.09;4973364;28;20130;-77
2022/06/07 06:51:21;;;;;;;2.38;2.00;;;;;;;-144.82;100.00;71671.09;4974255;28;20126;-79
2022/06/07 06:53:48;;;;;;;3.88;1.95;;;;;;;-144.82;100.00;71671.09;4962103;28;20035;-79
2022/06/07 06:56:18;;;;;;;8.43;2.40;;;;;;;-144.82;100.00;71671.09;4981797;28;20034;-82
2022/06/07 06:58:44;;;;;;;3.10;1.90;;;;;;;-144.82;100.00;71671.09;4947099;28;20079;-80
2022/06/07 07:01:12;;;;;;;3.42;2.13;;;;;;;-144.82;100.00;71671.09;4977954;28;20026;-81
2022/06/07 07:03:39;;;;;;;2.78;1.85;;;;;;;-144.82;100.00;71671.09;4977832;28;20061;-80
2022/06/07 07:06:07;;;;;;;2.85;2.17;;;;;;;-144.82;100.00;71671.09;4977626;28;20035;-81
2022/06/07 07:08:34;;;;;;;2.65;1.65;;;;;;;-144.82;100.00;71671.09;4976442;28;20062;-82
2022/06/07 07:11:15;;;;;;;4.72;2.67;;;;;;;-144.82;100.00;71671.09;4960197;28;20027;-81
2022/06/07 07:13:42;;;;;;;2.43;2.00;;;;;;;-144.82;100.00;71671.09;4977515;28;20062;-82
2022/06/07 07:16:11;;;;;;;4.10;1.98;;;;;;;-144.82;100.00;71671.09;4975933;28;20031;-81
2022/06/07 07:18:38;;;;;;;2.38;2.17;;;;;;;-144.82;100.00;71671.09;4959926;28;20035;-82
2022/06/07 07:21:06;;;;;;;1.70;1.50;;;;;;;-144.82;100.00;71671.09;4976219;28;20037;-76
2022/06/07 07:23:33;;;;;;;2.65;1.90;;;;;;;-144.82;100.00;71671.09;4975959;28;20118;-79
2022/06/07 07:26:10;;;;;;;2.42;1.98;;;;;;;-144.82;100.00;71671.09;4979836;28;20028;-78
2022/06/07 07:28:40;;;;;;;3.10;1.60;;;;;;;-144.82;100.00;71671.09;4978970;28;20041;-80
2022/06/07 07:31:16;;;;;;;3.78;2.80;;;;;;;-144.82;100.00;71671.09;4996690;28;20117;-80
2022/06/07 07:33:42;;;;;;;4.47;1.73;;;;;;;-144.82;100.00;71671.09;4995325;28;20117;-78
2022/06/07 07:36:09;;;;;;;2.40;1.65;;;;;;;-144.82;100.00;71671.09;4995221;28;20118;-75
2022/06/07 07:38:57;;;;;;;1.90;1.80;;;;;;;-144.82;100.00;71671.09;4994823;28;20037;-76
2022/06/07 07:41:28;;;;;;;3.50;1.60;;;;;;;-144.82;100.00;71671.09;4963921;28;20536;-77
2022/06/07 07:43:55;;;;;;;;;;;;;;;-144.82;100.00;71671.09;4975563;28;20072;-78
2022/06/07 07:46:24;;;;;;;3.33;2.20;;;;;;;-144.82;100.00;71671.09;4992928;28;19912;-82
2022/06/07 07:48:51;;;;;;;5.30;1.50;;;;;;;-144.82;100.00;71671.09;4979067;28;20398;-81
2022/06/07 07:51:29;;;;;;;6.63;1.90;;;;;;;-144.82;100.00;71671.09;4978993;28;20113;-80
2022/06/07 07:53:56;;;;;;;5.90;1.90;;;;;;;-144.82;100.00;71671.09;4994971;28;20030;-78
2022/06/07 07:56:23;;;;;;;7.57;2.30;;;;;;;-144.82;100.00;71671.09;4979715;28;20046;-87
2022/06/07 07:58:51;;;;;;;5.53;2.17;;;;;;;-144.82;100.00;71671.09;4979339;28;20038;-82
2022/06/07 08:01:19;;;;;;;5.07;1.95;;;;;;;-144.82;100.00;71671.09;4980827;28;20042;-81
2022/06/07 08:03:45;;;;;;;2.72;1.83;;;;;;;-144.82;100.00;71671.09;4995919;28;20065;-78
2022/06/07 08:06:17;;;;;;;4.80;2.60;;;;;;;-144.82;100.00;71671.09;4993704;28;20065;-79
2022/06/07 08:08:53;;;;;;;2.88;1.75;;;;;;;-144.82;100.00;71671.09;4993306;28;20027;-79
2022/06/07 08:11:23;;;;;;;4.38;1.90;;;;;;;-144.82;100.00;71671.09;4996022;28;20022;-79
2022/06/07 08:14:04;;;;;;;4.43;2.20;;;;;;;-144.82;100.00;71671.09;4979314;28;20034;-74
2022/06/07 08:16:29;;;;;;;;;;;;;;;-144.82;100.00;71671.09;4994064;28;20046;-76
2022/06/07 08:18:57;;;;;;;4.93;1.90;;;;;;;-144.82;100.00;71671.09;4994306;28;19914;-74
2022/06/07 08:21:26;;;;;;;6.13;3.20;;;;;;;-144.82;100.00;71671.09;4996040;28;20343;-75
2022/06/07 08:23:57;;;;;;;6.45;4.07;;;;;;;-144.82;100.00;71671.09;4994868;28;20368;-77
2022/06/07 08:26:26;;;;;;;7.55;3.05;;;;;;;-144.82;100.00;71671.09;5004425;28;20104;-76
2022/06/07 08:28:52;;;;;;;3.28;2.22;;;;;;;-144.82;100.00;71671.09;4997978;28;20061;-77
2022/06/07 08:31:21;;;;;;;3.55;1.55;;;;;;;-144.82;100.00;71671.09;4994169;28;20108;-79
2022/06/07 08:39:19;;;;;;;3.38;2.08;;;;;;;-144.82;100.00;71671.09;4986725;28;20122;-79
2022/06/07 08:42:23;;;;;;;3.00;2.42;;;;;;;-144.82;100.00;71671.09;4994013;28;20030;-79
2022/06/07 08:44:57;;;;;;;7.22;2.17;;;;;;;-144.82;100.00;71671.09;4993975;28;20053;-77
2022/06/07 08:47:44;;;;;;;4.82;1.73;;;;;;;-144.82;100.00;71671.09;4994083;28;20079;-78
2022/06/07 08:50:22;;;;;;;6.13;1.85;;;;;;;-144.82;100.00;71671.09;4993675;28;20065;-79
2022/06/07 08:52:51;;;;;;;2.35;1.70;;;;;;;-144.82;100.00;71671.09;4961711;28;20031;-78
2022/06/07 08:55:26;;;;;;;5.90;1.98;;;;;;;-144.82;100.00;71671.09;4977750;28;20030;-81
2022/06/07 08:57:57;;;;;;;7.50;2.55;;;;;;;-144.82;100.00;71671.09;4993597;28;20038;-81
2022/06/07 09:00:31;;;;;;;9.38;2.50;;;;;;;-144.82;100.00;71671.09;4993537;28;20124;-78
2022/06/07 09:03:25;;;;;;;5.28;1.65;;;;;;;-144.82;100.00;71671.09;4993152;28;20034;-79
2022/06/07 09:05:59;;;;;;;7.85;2.05;;;;;;;-144.82;100.00;71671.09;4994863;28;20472;-82
2022/06/07 09:08:42;;;;;;;2.83;1.65;;;;;;;-144.82;100.00;71671.09;4993595;28;20054;-79
2022/06/07 09:15:11;;;;;;;17.27;4.82;;;;;;;-144.82;100.00;71671.09;5016136;28;20113;-81
2022/06/07 09:17:51;;;;;;;7.18;2.15;;;;;;;-144.82;100.00;71671.09;4919762;29;20035;-83
2022/06/07 09:20:39;;;;;;;4.85;2.42;;;;;;;-144.82;100.00;71671.09;4991705;28;20034;-85
2022/06/07 09:23:18;;;;;;;3.60;2.33;;;;;;;-144.82;100.00;71671.09;4993489;28;20037;-80
2022/06/07 09:25:49;;;;;;;8.43;2.28;;;;;;;-144.82;100.00;71671.09;5000805;28;20026;-79
2022/06/07 09:28:23;;;;;;;3.83;1.65;;;;;;;-144.82;100.00;71671.09;4978545;28;20538;-80
2022/06/07 09:31:01;;;;;;;4.88;2.65;;;;;;;-144.82;100.00;71671.09;5017875;28;20033;-76
2022/06/07 09:33:29;;;;;;;7.70;1.90;;;;;;;-144.82;100.00;71671.09;5015715;28;20029;-78
2022/06/07 09:35:58;;;;;;;2.65;2.08;;;;;;;-144.82;100.00;71671.09;5018200;28;20066;-79
2022/06/07 09:38:32;;;;;;;3.33;1.75;;;;;;;-144.82;100.00;71671.09;5015670;28;20109;-80
2022/06/07 09:44:15;;;;;;;5.32;2.55;;;;;;;-144.82;100.00;71671.09;5016887;28;20041;-80
2022/06/07 09:46:58;;;;;;;4.15;1.90;;;;;;;-144.82;100.00;71671.09;5021237;28;20041;-80
2022/06/07 09:49:48;;;;;;;2.25;2.05;;;;;;;-144.82;100.00;71671.09;4999162;28;20026;-81
2022/06/07 09:52:23;;;;;;;5.05;2.33;;;;;;;-144.82;100.00;71671.09;5015110;28;20116;-81
2022/06/07 09:55:15;;;;;;;7.47;2.13;;;;;;;-144.82;100.00;71671.09;5015332;28;20030;-80
2022/06/07 09:57:43;;;;;;;5.30;1.95;;;;;;;-144.82;100.00;71671.09;5012285;28;20107;-78
2022/06/07 10:00:21;;;;;;;12.80;2.13;;;;;;;-144.82;100.00;71671.09;4996020;28;20073;-80
2022/06/07 10:03:01;;;;;;;6.32;1.70;;;;;;;-144.82;100.00;71671.09;5012337;28;20084;-76
2022/06/07 10:05:50;;;;;;;2.58;1.50;;;;;;;-144.82;100.00;71671.09;5014123;28;20567;-77
2022/06/07 10:08:56;;;;;;;4.90;2.03;;;;;;;-144.82;100.00;71671.09;5013801;28;20058;-76
2022/06/07 10:11:43;;;;;;;6.93;2.35;;;;;;;-144.82;100.00;71671.09;4985432;28;20069;-77
2022/06/07 10:14:31;;;;;;;10.60;3.30;;;;;;;-144.82;100.00;71671.09;5012619;28;20080;-74
2022/06/07 10:17:29;;;;;;;3.65;2.47;;;;;;;-144.82;100.00;71671.09;5013669;28;20041;-75
2022/06/07 10:20:06;;;;;;;5.43;1.65;;;;;;;-144.82;100.00;71671.09;5013451;28;20083;-77
2022/06/07 10:23:02;;;;;;;2.38;1.83;;;;;;;-144.82;100.00;71671.09;5013183;28;20483;-75
2022/06/07 10:25:36;;;;;;;9.18;2.90;;;;;;;-144.82;100.00;71671.09;5013149;28;20038;-78
2022/06/07 10:28:14;;;;;;;17.45;2.92;;;;;;;-144.82;100.00;71671.09;5015684;28;20033;-76
2022/06/07 10:31:06;;;;;;;1.40;1.30;;;;;;;-144.82;100.00;71671.09;5017353;28;20040;-75
2022/06/07 10:33:58;;;;;;;2.70;1.50;;;;;;;-144.82;100.00;71671.09;4999696;28;20034;-76
2022/06/07 10:36:43;;;;;;;3.22;1.50;;;;;;;-144.82;100.00;71671.09;5016587;28;20459;-78
2022/06/07 10:39:38;;;;;;;14.68;1.70;;;;;;;-144.82;100.00;71671.09;4999470;28;20466;-75
2022/06/07 10:42:26;;;;;;;2.22;1.42;;;;;;;-144.82;100.00;71671.09;5017027;28;20108;-74
2022/06/07 10:45:14;;;;;;;16.65;2.92;;;;;;;-144.82;100.00;71671.09;5015795;28;20433;-76
2022/06/07 10:47:56;;;;;;;6.47;2.40;;;;;;;-144.82;100.00;71671.09;5016895;28;20481;-77
2022/06/07 10:50:32;;;;;;;1.85;1.55;;;;;;;-144.82;100.00;71671.09;5017026;28;20030;-82
2022/06/07 10:52:59;;;;;;;2.42;1.52;;;;;;;-144.82;100.00;71671.09;4999422;28;20026;-79
2022/06/07 10:56:22;;;;;;;3.22;1.83;;;;;;;-144.82;100.00;71671.09;5017010;28;20030;-81
2022/06/07 10:58:52;;;;;;;3.22;1.90;;;;;;;-144.82;100.00;71671.09;4978005;28;20038;-76
2022/06/07 11:01:40;;;;;;;4.63;1.58;;;;;;;-144.82;100.00;71671.09;5015758;28;20419;-79
2022/06/07 11:10:41;;;;;;;5.78;2.15;;;;;;;-144.82;100.00;71671.09;5016025;28;20407;-78
2022/06/07 11:13:27;;;;;;;2.22;1.30;;;;;;;-144.82;100.00;71671.09;4999139;28;20021;-79
2022/06/07 11:16:37;;;;;;;2.88;1.42;;;;;;;-144.82;100.00;71671.09;5010698;28;20022;-79
2022/06/07 11:19:05;;;;;;;3.05;1.33;;;;;;;-144.82;100.00;71671.09;4992225;28;20034;-78
2022/06/07 11:21:34;;;;;;;1.48;1.38;;;;;;;-144.82;100.00;71671.09;4976048;28;20030;-77
2022/06/07 11:24:04;;;;;;;12.82;2.53;;;;;;;-144.82;100.00;71671.09;4973147;28;20511;-81
2022/06/07 11:26:50;;;;;;;1.42;1.30;;;;;;;-144.82;100.00;71671.09;4977131;28;20050;-77
2022/06/07 11:29:29;;;;;;;1.40;1.17;;;;;;;-144.82;100.00;71671.09;4937112;29;20050;-78
2022/06/07 11:32:25;;;;;;;7.97;1.65;;;;;;;-144.82;100.00;71671.09;4974107;28;20042;-77
2022/06/07 11:34:52;;;;;;;3.10;1.50;;;;;;;-144.82;100.00;71671.09;4977016;28;20101;-77
2022/06/07 11:37:21;;;;;;;2.00;1.38;;;;;;;-144.82;100.00;71671.09;4976957;28;20076;-77
2022/06/07 11:39:56;;;;;;;3.95;1.50;;;;;;;-144.82;100.00;71671.09;4975362;28;20038;-76
2022/06/07 11:42:34;;;;;;;2.75;1.48;;;;;;;-144.82;100.00;71671.09;4975691;28;20055;-77
2022/06/07 11:45:24;;;;;;;2.20;1.40;;;;;;;-144.82;100.00;71671.09;4976038;28;20078;-77
2022/06/07 11:48:12;;;;;;;5.68;2.05;;;;;;;-144.82;100.00;71671.09;4936320;29;20082;-78
2022/06/07 11:50:45;;;;;;;6.07;2.15;;;;;;;-144.82;100.00;71671.09;4935897;29;20119;-78
2022/06/07 11:53:31;;;;;;;2.47;1.40;;;;;;;-144.82;100.00;71671.09;4935582;29;20051;-78
2022/06/07 11:56:26;;;;;;;6.95;2.00;;;;;;;-144.82;100.00;71671.09;4936472;29;20042;-78
2022/06/07 11:58:55;;;;;;;6.18;2.10;;;;;;;-144.82;100.00;71671.09;4935627;29;20171;-76